sensor_id;sensor_type;location;lat;lon;timestamp;pressure;altitude;pressure_sealevel;temperature;humidity
55932;BME280;41837;55.700;37.984;2023-07-08T00:00:43;100002.91;;;17.42;100.00
55932;BME280;41837;55.700;37.984;2023-07-08T00:03:11;99994.16;;;17.42;100.00
55932;BME280;41837;55.700;37.984;2023-07-08T00:05:37;99998.56;;;17.41;100.00
55932;BME280;41837;55.700;37.984;2023-07-08T00:08:04;100004.53;;;17.45;100.00
55932;BME280;41837;55.700;37.984;2023-07-08T00:10:30;100005.00;;;17.24;100.00
55932;BME280;41837;55.700;37.984;2023-07-08T00:12:58;100002.88;;;17.17;100.00
55932;BME280;41837;55.700;37.984;2023-07-08T00:15:28;100010.22;;;17.39;100.00
55932;BME280;41837;55.700;37.984;2023-07-08T00:17:57;100013.34;;;17.18;100.00
55932;BME280;41837;55.700;37.984;2023-07-08T00:20:35;100013.38;;;17.44;100.00
55932;BME280;41837;55.700;37.984;2023-07-08T00:23:03;100023.06;;;17.18;100.00
55932;BME280;41837;55.700;37.984;2023-07-08T00:25:30;100026.56;;;17.18;100.00
55932;BME280;41837;55.700;37.984;2023-07-08T00:27:57;100025.81;;;17.16;100.00
55932;BME280;41837;55.700;37.984;2023-07-08T00:30:26;100026.00;;;17.13;100.00
55932;BME280;41837;55.700;37.984;2023-07-08T00:32:54;100033.19;;;17.11;100.00
55932;BME280;41837;55.700;37.984;2023-07-08T00:35:22;100030.56;;;17.11;100.00
55932;BME280;41837;55.700;37.984;2023-07-08T00:37:54;100028.13;;;17.08;100.00
55932;BME280;41837;55.700;37.984;2023-07-08T00:40:32;100039.50;;;17.08;100.00
55932;BME280;41837;55.700;37.984;2023-07-08T00:43:01;100031.03;;;17.03;100.00
55932;BME280;41837;55.700;37.984;2023-07-08T00:45:40;100032.31;;;16.98;100.00
55932;BME280;41837;55.700;37.984;2023-07-08T00:50:43;100036.38;;;17.16;100.00
55932;BME280;41837;55.700;37.984;2023-07-08T00:55:48;100034.69;;;17.15;100.00
55932;BME280;41837;55.700;37.984;2023-07-08T00:58:17;100037.78;;;16.94;100.00
55932;BME280;41837;55.700;37.984;2023-07-08T01:00:45;100031.56;;;16.81;100.00
55932;BME280;41837;55.700;37.984;2023-07-08T01:03:12;100037.59;;;17.10;100.00
55932;BME280;41837;55.700;37.984;2023-07-08T01:05:39;100033.94;;;17.13;100.00
55932;BME280;41837;55.700;37.984;2023-07-08T01:08:06;100039.59;;;16.94;100.00
55932;BME280;41837;55.700;37.984;2023-07-08T01:10:39;100046.63;;;16.93;100.00
55932;BME280;41837;55.700;37.984;2023-07-08T01:13:09;100036.25;;;16.90;100.00
55932;BME280;41837;55.700;37.984;2023-07-08T01:15:41;100057.25;;;17.06;100.00
55932;BME280;41837;55.700;37.984;2023-07-08T01:18:10;100045.34;;;17.13;100.00
55932;BME280;41837;55.700;37.984;2023-07-08T01:20:39;100041.72;;;17.42;100.00
55932;BME280;41837;55.700;37.984;2023-07-08T01:23:05;100044.28;;;17.56;100.00
55932;BME280;41837;55.700;37.984;2023-07-08T01:25:32;100041.75;;;17.67;100.00
55932;BME280;41837;55.700;37.984;2023-07-08T01:27:59;100040.44;;;17.87;100.00
55932;BME280;41837;55.700;37.984;2023-07-08T01:30:26;100042.00;;;17.90;100.00
55932;BME280;41837;55.700;37.984;2023-07-08T01:32:57;100033.13;;;17.91;100.00
55932;BME280;41837;55.700;37.984;2023-07-08T01:35:26;100029.72;;;18.15;100.00
55932;BME280;41837;55.700;37.984;2023-07-08T01:37:56;100019.56;;;18.08;100.00
55932;BME280;41837;55.700;37.984;2023-07-08T01:40:33;100022.19;;;17.70;100.00
55932;BME280;41837;55.700;37.984;2023-07-08T01:43:01;100029.41;;;18.06;100.00
55932;BME280;41837;55.700;37.984;2023-07-08T01:45:32;100031.63;;;18.00;100.00
55932;BME280;41837;55.700;37.984;2023-07-08T01:48:04;100030.41;;;18.42;100.00
55932;BME280;41837;55.700;37.984;2023-07-08T01:50:35;100019.63;;;18.70;100.00
55932;BME280;41837;55.700;37.984;2023-07-08T01:53:08;100010.28;;;18.90;100.00
55932;BME280;41837;55.700;37.984;2023-07-08T01:55:35;100003.06;;;19.27;100.00
55932;BME280;41837;55.700;37.984;2023-07-08T01:58:01;99991.75;;;19.25;100.00
55932;BME280;41837;55.700;37.984;2023-07-08T02:00:27;99992.06;;;19.20;100.00
55932;BME280;41837;55.700;37.984;2023-07-08T02:02:53;99996.28;;;19.12;100.00
55932;BME280;41837;55.700;37.984;2023-07-08T02:05:22;99994.59;;;19.57;100.00
55932;BME280;41837;55.700;37.984;2023-07-08T02:07:49;100008.41;;;19.38;100.00
55932;BME280;41837;55.700;37.984;2023-07-08T02:10:15;100005.88;;;19.37;100.00
55932;BME280;41837;55.700;37.984;2023-07-08T02:12:41;100000.06;;;19.79;100.00
55932;BME280;41837;55.700;37.984;2023-07-08T02:15:11;99984.97;;;20.24;100.00
55932;BME280;41837;55.700;37.984;2023-07-08T02:17:38;99975.53;;;20.54;100.00
55932;BME280;41837;55.700;37.984;2023-07-08T02:20:04;99968.69;;;20.84;100.00
55932;BME280;41837;55.700;37.984;2023-07-08T02:22:31;99964.28;;;21.27;100.00
55932;BME280;41837;55.700;37.984;2023-07-08T02:25:00;99957.16;;;21.48;100.00
55932;BME280;41837;55.700;37.984;2023-07-08T02:27:29;99968.75;;;21.68;100.00
55932;BME280;41837;55.700;37.984;2023-07-08T02:29:59;99962.13;;;21.41;100.00
55932;BME280;41837;55.700;37.984;2023-07-08T02:32:26;99963.81;;;21.94;100.00
55932;BME280;41837;55.700;37.984;2023-07-08T02:34:53;99956.63;;;21.85;100.00
55932;BME280;41837;55.700;37.984;2023-07-08T02:37:19;99952.59;;;21.91;100.00
55932;BME280;41837;55.700;37.984;2023-07-08T02:39:45;99944.28;;;21.84;100.00
55932;BME280;41837;55.700;37.984;2023-07-08T02:42:12;99936.78;;;21.99;100.00
55932;BME280;41837;55.700;37.984;2023-07-08T02:44:38;99938.66;;;22.18;100.00
55932;BME280;41837;55.700;37.984;2023-07-08T02:47:04;99929.63;;;22.40;100.00
55932;BME280;41837;55.700;37.984;2023-07-08T02:49:31;99930.78;;;22.47;100.00
55932;BME280;41837;55.700;37.984;2023-07-08T02:51:57;99919.41;;;23.04;100.00
55932;BME280;41837;55.700;37.984;2023-07-08T02:54:23;99922.78;;;22.47;100.00
55932;BME280;41837;55.700;37.984;2023-07-08T02:56:50;99914.25;;;22.44;100.00
55932;BME280;41837;55.700;37.984;2023-07-08T02:59:16;99905.97;;;22.66;100.00
55932;BME280;41837;55.700;37.984;2023-07-08T03:01:43;99921.22;;;21.85;100.00
55932;BME280;41837;55.700;37.984;2023-07-08T03:04:10;99944.94;;;21.03;100.00
55932;BME280;41837;55.700;37.984;2023-07-08T03:06:41;99941.03;;;21.08;100.00
55932;BME280;41837;55.700;37.984;2023-07-08T03:09:08;99948.75;;;21.11;100.00
55932;BME280;41837;55.700;37.984;2023-07-08T03:11:35;99956.28;;;20.73;100.00
55932;BME280;41837;55.700;37.984;2023-07-08T03:14:02;99969.66;;;20.28;100.00
55932;BME280;41837;55.700;37.984;2023-07-08T03:16:28;99964.97;;;19.75;100.00
55932;BME280;41837;55.700;37.984;2023-07-08T03:18:54;99986.28;;;19.73;100.00
55932;BME280;41837;55.700;37.984;2023-07-08T03:21:21;99983.25;;;19.55;100.00
55932;BME280;41837;55.700;37.984;2023-07-08T03:23:51;99983.72;;;19.49;100.00
55932;BME280;41837;55.700;37.984;2023-07-08T03:26:24;99985.38;;;19.39;100.00
55932;BME280;41837;55.700;37.984;2023-07-08T03:28:52;99995.94;;;19.16;100.00
55932;BME280;41837;55.700;37.984;2023-07-08T03:31:20;99992.84;;;18.98;100.00
55932;BME280;41837;55.700;37.984;2023-07-08T03:33:46;99997.75;;;19.27;100.00
55932;BME280;41837;55.700;37.984;2023-07-08T03:36:15;100004.00;;;19.15;100.00
55932;BME280;41837;55.700;37.984;2023-07-08T03:38:55;100004.38;;;19.22;100.00
55932;BME280;41837;55.700;37.984;2023-07-08T03:41:23;100007.53;;;19.27;100.00
55932;BME280;41837;55.700;37.984;2023-07-08T03:43:49;99999.19;;;19.20;100.00
55932;BME280;41837;55.700;37.984;2023-07-08T03:46:20;99991.47;;;19.17;100.00
55932;BME280;41837;55.700;37.984;2023-07-08T03:48:47;99985.59;;;19.25;100.00
55932;BME280;41837;55.700;37.984;2023-07-08T03:51:32;99972.16;;;19.50;100.00
55932;BME280;41837;55.700;37.984;2023-07-08T03:53:59;99971.31;;;19.61;100.00
55932;BME280;41837;55.700;37.984;2023-07-08T03:56:25;99967.22;;;19.57;100.00
55932;BME280;41837;55.700;37.984;2023-07-08T03:58:51;99955.56;;;20.05;100.00
55932;BME280;41837;55.700;37.984;2023-07-08T04:01:19;99933.28;;;21.37;100.00
55932;BME280;41837;55.700;37.984;2023-07-08T04:03:47;99922.50;;;21.59;100.00
55932;BME280;41837;55.700;37.984;2023-07-08T04:06:14;99891.31;;;23.29;100.00
55932;BME280;41837;55.700;37.984;2023-07-08T04:08:41;99900.47;;;22.48;100.00
55932;BME280;41837;55.700;37.984;2023-07-08T04:11:13;99877.28;;;24.02;100.00
55932;BME280;41837;55.700;37.984;2023-07-08T04:13:40;99877.84;;;24.42;100.00
55932;BME280;41837;55.700;37.984;2023-07-08T04:16:07;99888.28;;;23.89;100.00
55932;BME280;41837;55.700;37.984;2023-07-08T04:18:39;99869.22;;;24.84;100.00
55932;BME280;41837;55.700;37.984;2023-07-08T04:21:05;99864.78;;;25.45;100.00
55932;BME280;41837;55.700;37.984;2023-07-08T04:23:32;99870.31;;;24.73;100.00
55932;BME280;41837;55.700;37.984;2023-07-08T04:25:59;99861.56;;;24.71;100.00
55932;BME280;41837;55.700;37.984;2023-07-08T04:28:25;99869.94;;;25.38;99.92
55932;BME280;41837;55.700;37.984;2023-07-08T04:30:52;99878.72;;;25.04;100.00
55932;BME280;41837;55.700;37.984;2023-07-08T04:33:18;99893.25;;;23.37;100.00
55932;BME280;41837;55.700;37.984;2023-07-08T04:35:45;99913.09;;;23.15;100.00
55932;BME280;41837;55.700;37.984;2023-07-08T04:38:20;99925.31;;;22.78;100.00
55932;BME280;41837;55.700;37.984;2023-07-08T04:40:51;99922.78;;;23.25;100.00
55932;BME280;41837;55.700;37.984;2023-07-08T04:43:18;99928.41;;;23.13;100.00
55932;BME280;41837;55.700;37.984;2023-07-08T04:45:50;99942.25;;;22.38;100.00
55932;BME280;41837;55.700;37.984;2023-07-08T04:48:18;99950.25;;;21.46;100.00
55932;BME280;41837;55.700;37.984;2023-07-08T04:50:46;99962.00;;;21.64;100.00
55932;BME280;41837;55.700;37.984;2023-07-08T04:53:13;99971.03;;;21.52;100.00
55932;BME280;41837;55.700;37.984;2023-07-08T04:55:47;99967.66;;;21.71;100.00
55932;BME280;41837;55.700;37.984;2023-07-08T04:58:14;99974.00;;;22.20;100.00
55932;BME280;41837;55.700;37.984;2023-07-08T05:00:40;99976.06;;;22.16;100.00
55932;BME280;41837;55.700;37.984;2023-07-08T05:03:07;99973.34;;;21.97;100.00
55932;BME280;41837;55.700;37.984;2023-07-08T05:05:33;99964.34;;;21.88;100.00
55932;BME280;41837;55.700;37.984;2023-07-08T05:08:00;99982.44;;;21.42;100.00
55932;BME280;41837;55.700;37.984;2023-07-08T05:10:27;99976.34;;;21.31;100.00
55932;BME280;41837;55.700;37.984;2023-07-08T05:12:54;99970.34;;;21.17;100.00
55932;BME280;41837;55.700;37.984;2023-07-08T05:15:20;99975.88;;;21.04;100.00
55932;BME280;41837;55.700;37.984;2023-07-08T05:17:46;99972.00;;;20.97;100.00
55932;BME280;41837;55.700;37.984;2023-07-08T05:20:14;99968.59;;;21.28;100.00
55932;BME280;41837;55.700;37.984;2023-07-08T05:22:40;99964.47;;;21.14;100.00
55932;BME280;41837;55.700;37.984;2023-07-08T05:25:10;99955.44;;;21.26;100.00
55932;BME280;41837;55.700;37.984;2023-07-08T05:27:37;99952.38;;;22.04;100.00
55932;BME280;41837;55.700;37.984;2023-07-08T05:30:05;99931.63;;;24.11;100.00
55932;BME280;41837;55.700;37.984;2023-07-08T05:32:34;99907.69;;;24.91;100.00
55932;BME280;41837;55.700;37.984;2023-07-08T05:35:00;99910.53;;;23.80;100.00
55932;BME280;41837;55.700;37.984;2023-07-08T05:37:30;99906.53;;;23.56;100.00
55932;BME280;41837;55.700;37.984;2023-07-08T05:39:57;99926.31;;;22.87;100.00
55932;BME280;41837;55.700;37.984;2023-07-08T05:42:26;99920.78;;;22.30;100.00
55932;BME280;41837;55.700;37.984;2023-07-08T05:44:53;99930.97;;;21.74;100.00
55932;BME280;41837;55.700;37.984;2023-07-08T05:47:21;99940.59;;;21.96;100.00
55932;BME280;41837;55.700;37.984;2023-07-08T05:49:48;99950.44;;;21.75;100.00
55932;BME280;41837;55.700;37.984;2023-07-08T05:52:14;99945.16;;;21.85;100.00
55932;BME280;41837;55.700;37.984;2023-07-08T05:54:41;99929.25;;;22.54;100.00
55932;BME280;41837;55.700;37.984;2023-07-08T05:57:11;99939.63;;;22.77;100.00
55932;BME280;41837;55.700;37.984;2023-07-08T05:59:38;99914.66;;;24.66;100.00
55932;BME280;41837;55.700;37.984;2023-07-08T06:02:10;99901.09;;;25.03;100.00
55932;BME280;41837;55.700;37.984;2023-07-08T06:04:38;99869.09;;;25.38;93.89
55932;BME280;41837;55.700;37.984;2023-07-08T06:07:04;99881.97;;;25.34;92.32
55932;BME280;41837;55.700;37.984;2023-07-08T06:09:31;99888.09;;;24.64;96.13
55932;BME280;41837;55.700;37.984;2023-07-08T06:11:58;99904.25;;;23.14;100.00
55932;BME280;41837;55.700;37.984;2023-07-08T06:14:24;99911.72;;;23.11;100.00
55932;BME280;41837;55.700;37.984;2023-07-08T06:16:50;99916.91;;;22.83;100.00
55932;BME280;41837;55.700;37.984;2023-07-08T06:19:17;99912.69;;;22.90;100.00
55932;BME280;41837;55.700;37.984;2023-07-08T06:21:43;99890.97;;;23.42;100.00
55932;BME280;41837;55.700;37.984;2023-07-08T06:24:10;99892.00;;;24.06;100.00
55932;BME280;41837;55.700;37.984;2023-07-08T06:26:36;99896.84;;;23.93;100.00
55932;BME280;41837;55.700;37.984;2023-07-08T06:29:03;99880.28;;;24.71;100.00
55932;BME280;41837;55.700;37.984;2023-07-08T06:31:30;99870.63;;;23.78;100.00
55932;BME280;41837;55.700;37.984;2023-07-08T06:33:56;99871.31;;;23.53;100.00
55932;BME280;41837;55.700;37.984;2023-07-08T06:36:22;99877.03;;;23.01;100.00
55932;BME280;41837;55.700;37.984;2023-07-08T06:38:49;99881.84;;;22.58;100.00
55932;BME280;41837;55.700;37.984;2023-07-08T06:41:15;99880.25;;;22.26;100.00
55932;BME280;41837;55.700;37.984;2023-07-08T06:43:41;99890.44;;;22.11;100.00
55932;BME280;41837;55.700;37.984;2023-07-08T06:46:17;99904.53;;;21.92;100.00
55932;BME280;41837;55.700;37.984;2023-07-08T06:48:44;99901.56;;;21.76;100.00
55932;BME280;41837;55.700;37.984;2023-07-08T06:51:11;99897.78;;;21.78;100.00
55932;BME280;41837;55.700;37.984;2023-07-08T06:53:37;99892.00;;;22.14;100.00
55932;BME280;41837;55.700;37.984;2023-07-08T06:56:04;99876.75;;;22.94;100.00
55932;BME280;41837;55.700;37.984;2023-07-08T06:58:30;99852.59;;;24.98;98.16
55932;BME280;41837;55.700;37.984;2023-07-08T07:00:57;99853.72;;;25.82;89.94
55932;BME280;41837;55.700;37.984;2023-07-08T07:03:23;99838.50;;;25.91;89.13
55932;BME280;41837;55.700;37.984;2023-07-08T07:05:50;99850.97;;;25.66;91.99
55932;BME280;41837;55.700;37.984;2023-07-08T07:08:17;99838.97;;;25.70;87.97
55932;BME280;41837;55.700;37.984;2023-07-08T07:10:43;99854.75;;;24.05;96.48
55932;BME280;41837;55.700;37.984;2023-07-08T07:13:09;99857.84;;;23.72;100.00
55932;BME280;41837;55.700;37.984;2023-07-08T07:15:36;99862.88;;;22.90;100.00
55932;BME280;41837;55.700;37.984;2023-07-08T07:18:03;99873.38;;;23.02;100.00
55932;BME280;41837;55.700;37.984;2023-07-08T07:20:29;99883.38;;;22.80;100.00
55932;BME280;41837;55.700;37.984;2023-07-08T07:22:56;99877.06;;;22.81;100.00
55932;BME280;41837;55.700;37.984;2023-07-08T07:25:22;99894.16;;;22.30;100.00
55932;BME280;41837;55.700;37.984;2023-07-08T07:27:49;99889.34;;;21.21;100.00
55932;BME280;41837;55.700;37.984;2023-07-08T07:30:15;99892.41;;;20.96;100.00
55932;BME280;41837;55.700;37.984;2023-07-08T07:32:43;99908.44;;;21.05;100.00
55932;BME280;41837;55.700;37.984;2023-07-08T07:35:10;99907.72;;;21.46;100.00
55932;BME280;41837;55.700;37.984;2023-07-08T07:37:39;99915.38;;;21.18;100.00
55932;BME280;41837;55.700;37.984;2023-07-08T07:40:07;99915.31;;;21.29;100.00
55932;BME280;41837;55.700;37.984;2023-07-08T07:42:40;99913.69;;;20.96;100.00
55932;BME280;41837;55.700;37.984;2023-07-08T07:45:07;99912.00;;;21.37;100.00
55932;BME280;41837;55.700;37.984;2023-07-08T07:47:35;99914.34;;;21.30;100.00
55932;BME280;41837;55.700;37.984;2023-07-08T07:50:03;99904.00;;;21.58;100.00
55932;BME280;41837;55.700;37.984;2023-07-08T07:52:30;99918.66;;;21.31;100.00
55932;BME280;41837;55.700;37.984;2023-07-08T07:54:57;99922.25;;;21.20;100.00
55932;BME280;41837;55.700;37.984;2023-07-08T07:57:25;99920.16;;;20.82;100.00
55932;BME280;41837;55.700;37.984;2023-07-08T07:59:52;99934.56;;;20.57;100.00
55932;BME280;41837;55.700;37.984;2023-07-08T08:02:19;99932.13;;;20.76;100.00
55932;BME280;41837;55.700;37.984;2023-07-08T08:04:45;99925.50;;;21.03;100.00
55932;BME280;41837;55.700;37.984;2023-07-08T08:07:12;99930.03;;;21.12;100.00
55932;BME280;41837;55.700;37.984;2023-07-08T08:09:40;99935.00;;;21.05;100.00
55932;BME280;41837;55.700;37.984;2023-07-08T08:12:09;99937.81;;;20.72;100.00
55932;BME280;41837;55.700;37.984;2023-07-08T08:14:37;99946.94;;;20.90;100.00
55932;BME280;41837;55.700;37.984;2023-07-08T08:17:04;99930.69;;;21.26;100.00
55932;BME280;41837;55.700;37.984;2023-07-08T08:19:31;99918.72;;;21.41;100.00
55932;BME280;41837;55.700;37.984;2023-07-08T08:21:58;99928.13;;;21.66;100.00
55932;BME280;41837;55.700;37.984;2023-07-08T08:24:25;99924.22;;;21.70;100.00
55932;BME280;41837;55.700;37.984;2023-07-08T08:26:52;99926.34;;;21.76;100.00
55932;BME280;41837;55.700;37.984;2023-07-08T08:29:22;99922.22;;;21.93;100.00
55932;BME280;41837;55.700;37.984;2023-07-08T08:31:49;99929.91;;;21.87;100.00
55932;BME280;41837;55.700;37.984;2023-07-08T08:34:17;99933.84;;;21.61;100.00
55932;BME280;41837;55.700;37.984;2023-07-08T08:36:44;99938.19;;;21.41;100.00
55932;BME280;41837;55.700;37.984;2023-07-08T08:39:10;99942.88;;;21.07;100.00
55932;BME280;41837;55.700;37.984;2023-07-08T08:41:40;99945.50;;;21.28;100.00
55932;BME280;41837;55.700;37.984;2023-07-08T08:44:13;99952.09;;;20.71;100.00
55932;BME280;41837;55.700;37.984;2023-07-08T08:52:51;99958.34;;;20.81;100.00
55932;BME280;41837;55.700;37.984;2023-07-08T08:55:22;99958.84;;;20.63;100.00
55932;BME280;41837;55.700;37.984;2023-07-08T09:01:02;99950.78;;;20.54;100.00
55932;BME280;41837;55.700;37.984;2023-07-08T09:06:35;99953.72;;;20.39;100.00
55932;BME280;41837;55.700;37.984;2023-07-08T09:09:27;99943.13;;;20.60;100.00
55932;BME280;41837;55.700;37.984;2023-07-08T09:12:03;99949.47;;;20.48;100.00
55932;BME280;41837;55.700;37.984;2023-07-08T09:14:34;99950.28;;;20.60;100.00
55932;BME280;41837;55.700;37.984;2023-07-08T09:17:32;99940.59;;;20.70;100.00
55932;BME280;41837;55.700;37.984;2023-07-08T09:20:27;99943.91;;;20.62;100.00
55932;BME280;41837;55.700;37.984;2023-07-08T09:23:15;99934.94;;;20.96;100.00
55932;BME280;41837;55.700;37.984;2023-07-08T09:26:01;99942.28;;;21.03;100.00
55932;BME280;41837;55.700;37.984;2023-07-08T09:28:42;99935.69;;;20.98;100.00
55932;BME280;41837;55.700;37.984;2023-07-08T09:31:24;99934.47;;;20.70;100.00
55932;BME280;41837;55.700;37.984;2023-07-08T09:34:16;99940.44;;;20.83;100.00
55932;BME280;41837;55.700;37.984;2023-07-08T09:36:47;99944.59;;;20.97;100.00
55932;BME280;41837;55.700;37.984;2023-07-08T09:39:19;99936.84;;;21.05;100.00
55932;BME280;41837;55.700;37.984;2023-07-08T09:41:49;99945.19;;;21.00;100.00
55932;BME280;41837;55.700;37.984;2023-07-08T09:46:50;99945.34;;;20.66;100.00
55932;BME280;41837;55.700;37.984;2023-07-08T09:49:33;99963.72;;;20.36;100.00
55932;BME280;41837;55.700;37.984;2023-07-08T09:52:01;99965.91;;;20.30;100.00
55932;BME280;41837;55.700;37.984;2023-07-08T09:54:31;99970.13;;;20.33;100.00
55932;BME280;41837;55.700;37.984;2023-07-08T09:57:02;99959.63;;;20.43;100.00
55932;BME280;41837;55.700;37.984;2023-07-08T09:59:35;99950.94;;;20.41;100.00
55932;BME280;41837;55.700;37.984;2023-07-08T10:04:45;99953.03;;;20.81;100.00
55932;BME280;41837;55.700;37.984;2023-07-08T10:07:16;99947.34;;;21.07;100.00
55932;BME280;41837;55.700;37.984;2023-07-08T10:09:44;99944.31;;;20.79;100.00
55932;BME280;41837;55.700;37.984;2023-07-08T10:12:14;99946.16;;;20.99;100.00
55932;BME280;41837;55.700;37.984;2023-07-08T10:14:47;99948.63;;;20.91;100.00
55932;BME280;41837;55.700;37.984;2023-07-08T10:17:18;99938.69;;;20.61;100.00
55932;BME280;41837;55.700;37.984;2023-07-08T10:19:47;99941.13;;;20.96;100.00
55932;BME280;41837;55.700;37.984;2023-07-08T10:25:16;99927.88;;;21.48;100.00
55932;BME280;41837;55.700;37.984;2023-07-08T10:27:54;99932.22;;;21.28;100.00
55932;BME280;41837;55.700;37.984;2023-07-08T10:30:27;99923.72;;;20.92;100.00
55932;BME280;41837;55.700;37.984;2023-07-08T10:36:23;99944.66;;;20.85;100.00
55932;BME280;41837;55.700;37.984;2023-07-08T10:42:32;99929.31;;;21.10;100.00
55932;BME280;41837;55.700;37.984;2023-07-08T10:45:17;99937.78;;;21.46;100.00
55932;BME280;41837;55.700;37.984;2023-07-08T10:50:51;99920.69;;;22.01;100.00
55932;BME280;41837;55.700;37.984;2023-07-08T10:53:45;99921.97;;;21.45;100.00
55932;BME280;41837;55.700;37.984;2023-07-08T10:56:30;99910.28;;;21.57;100.00
55932;BME280;41837;55.700;37.984;2023-07-08T11:09:58;99896.84;;;22.69;99.40
55932;BME280;41837;55.700;37.984;2023-07-08T11:12:42;99891.94;;;22.84;97.44
55932;BME280;41837;55.700;37.984;2023-07-08T11:15:23;99884.66;;;22.37;100.00
55932;BME280;41837;55.700;37.984;2023-07-08T11:21:10;99889.94;;;22.86;99.51
55932;BME280;41837;55.700;37.984;2023-07-08T11:24:13;99884.78;;;23.14;95.68
55932;BME280;41837;55.700;37.984;2023-07-08T11:26:56;99880.47;;;23.78;93.33
55932;BME280;41837;55.700;37.984;2023-07-08T11:32:19;99882.41;;;22.32;93.36
55932;BME280;41837;55.700;37.984;2023-07-08T11:34:50;99900.34;;;22.60;96.39
55932;BME280;41837;55.700;37.984;2023-07-08T11:37:22;99897.50;;;22.22;96.97
55932;BME280;41837;55.700;37.984;2023-07-08T11:42:34;99895.34;;;22.06;94.27
55932;BME280;41837;55.700;37.984;2023-07-08T11:45:08;99900.47;;;22.29;95.23
55932;BME280;41837;55.700;37.984;2023-07-08T11:47:40;99893.81;;;22.04;91.61
55932;BME280;41837;55.700;37.984;2023-07-08T11:50:40;99885.47;;;22.28;92.27
55932;BME280;41837;55.700;37.984;2023-07-08T11:53:13;99878.41;;;22.07;93.81
55932;BME280;41837;55.700;37.984;2023-07-08T11:56:01;99877.22;;;22.70;89.42
55932;BME280;41837;55.700;37.984;2023-07-08T11:58:33;99862.88;;;22.90;89.94
55932;BME280;41837;55.700;37.984;2023-07-08T12:01:28;99864.84;;;22.79;88.70
55932;BME280;41837;55.700;37.984;2023-07-08T12:04:26;99873.44;;;22.53;88.53
55932;BME280;41837;55.700;37.984;2023-07-08T12:07:16;99871.34;;;22.37;89.06
55932;BME280;41837;55.700;37.984;2023-07-08T12:09:58;99864.13;;;23.06;91.13
55932;BME280;41837;55.700;37.984;2023-07-08T12:12:40;99853.59;;;23.04;84.32
55932;BME280;41837;55.700;37.984;2023-07-08T12:17:52;99863.97;;;22.98;85.16
55932;BME280;41837;55.700;37.984;2023-07-08T12:20:27;99849.81;;;22.09;85.30
55932;BME280;41837;55.700;37.984;2023-07-08T12:22:56;99868.41;;;21.90;86.98
55932;BME280;41837;55.700;37.984;2023-07-08T12:25:31;99870.91;;;22.42;87.83
55932;BME280;41837;55.700;37.984;2023-07-08T12:27:59;99860.22;;;22.90;87.46
55932;BME280;41837;55.700;37.984;2023-07-08T12:30:28;99869.91;;;22.72;84.53
55932;BME280;41837;55.700;37.984;2023-07-08T12:32:57;99858.44;;;22.42;82.68
55932;BME280;41837;55.700;37.984;2023-07-08T12:35:32;99859.38;;;22.80;82.22
55932;BME280;41837;55.700;37.984;2023-07-08T12:38:09;99859.38;;;23.00;80.12
55932;BME280;41837;55.700;37.984;2023-07-08T12:40:40;99860.31;;;23.18;81.10
55932;BME280;41837;55.700;37.984;2023-07-08T12:43:10;99857.13;;;22.95;78.30
55932;BME280;41837;55.700;37.984;2023-07-08T12:45:41;99851.50;;;23.08;78.41
55932;BME280;41837;55.700;37.984;2023-07-08T12:48:10;99857.31;;;23.41;77.43
55932;BME280;41837;55.700;37.984;2023-07-08T12:50:38;99849.56;;;23.48;75.64
55932;BME280;41837;55.700;37.984;2023-07-08T12:53:07;99847.03;;;23.74;70.93
55932;BME280;41837;55.700;37.984;2023-07-08T12:55:40;99845.97;;;23.94;65.29
55932;BME280;41837;55.700;37.984;2023-07-08T12:58:22;99850.03;;;23.98;65.65
55932;BME280;41837;55.700;37.984;2023-07-08T13:00:54;99856.06;;;24.00;67.75
55932;BME280;41837;55.700;37.984;2023-07-08T13:03:26;99854.22;;;23.73;67.84
55932;BME280;41837;55.700;37.984;2023-07-08T13:05:55;99851.34;;;23.57;63.49
55932;BME280;41837;55.700;37.984;2023-07-08T13:08:25;99857.31;;;23.41;66.19
55932;BME280;41837;55.700;37.984;2023-07-08T13:10:58;99855.16;;;23.54;68.24
55932;BME280;41837;55.700;37.984;2023-07-08T13:16:16;99861.97;;;23.94;67.75
55932;BME280;41837;55.700;37.984;2023-07-08T13:18:45;99860.34;;;24.29;65.38
55932;BME280;41837;55.700;37.984;2023-07-08T13:21:14;99859.84;;;23.70;69.56
55932;BME280;41837;55.700;37.984;2023-07-08T13:23:43;99857.88;;;23.35;71.05
55932;BME280;41837;55.700;37.984;2023-07-08T13:26:19;99861.56;;;23.34;73.36
55932;BME280;41837;55.700;37.984;2023-07-08T13:28:48;99858.31;;;23.30;74.74
55932;BME280;41837;55.700;37.984;2023-07-08T13:31:22;99863.16;;;23.07;76.76
55932;BME280;41837;55.700;37.984;2023-07-08T13:33:52;99861.09;;;22.71;75.90
55932;BME280;41837;55.700;37.984;2023-07-08T13:36:23;99866.09;;;22.94;77.08
55932;BME280;41837;55.700;37.984;2023-07-08T13:38:53;99864.69;;;23.00;77.38
55932;BME280;41837;55.700;37.984;2023-07-08T13:41:22;99860.50;;;23.07;76.75
55932;BME280;41837;55.700;37.984;2023-07-08T13:43:51;99864.84;;;22.98;76.31
55932;BME280;41837;55.700;37.984;2023-07-08T13:46:52;99872.31;;;22.65;78.92
55932;BME280;41837;55.700;37.984;2023-07-08T13:49:42;99862.63;;;22.54;80.30
55932;BME280;41837;55.700;37.984;2023-07-08T13:52:20;99872.97;;;22.28;83.14
55932;BME280;41837;55.700;37.984;2023-07-08T13:54:59;99871.72;;;22.52;82.25
55932;BME280;41837;55.700;37.984;2023-07-08T13:57:36;99864.19;;;22.38;82.81